sensor_id;sensor_type;location;lat;lon;timestamp;P1;durP1;ratioP1;P2;durP2;ratioP2
47599;SDS011;33323;52.124;6.018;2022-11-14T00:02:04;10.35;;;6.35;;
47599;SDS011;33323;52.124;6.018;2022-11-14T00:04:50;9.68;;;6.28;;
47599;SDS011;33323;52.124;6.018;2022-11-14T00:07:35;12.35;;;7.63;;
47599;SDS011;33323;52.124;6.018;2022-11-14T00:10:21;12.55;;;6.93;;
47599;SDS011;33323;52.124;6.018;2022-11-14T00:13:07;11.05;;;7.70;;
47599;SDS011;33323;52.124;6.018;2022-11-14T00:15:53;13.27;;;8.15;;
47599;SDS011;33323;52.124;6.018;2022-11-14T00:18:39;11.00;;;6.70;;
47599;SDS011;33323;52.124;6.018;2022-11-14T00:21:24;13.70;;;8.50;;
47599;SDS011;33323;52.124;6.018;2022-11-14T00:24:10;14.35;;;8.60;;
47599;SDS011;33323;52.124;6.018;2022-11-14T00:26:56;15.02;;;7.82;;
47599;SDS011;33323;52.124;6.018;2022-11-14T00:29:42;13.90;;;7.65;;
47599;SDS011;33323;52.124;6.018;2022-11-14T00:32:27;11.98;;;7.35;;
47599;SDS011;33323;52.124;6.018;2022-11-14T00:35:13;15.40;;;8.95;;
47599;SDS011;33323;52.124;6.018;2022-11-14T00:37:59;14.45;;;7.78;;
47599;SDS011;33323;52.124;6.018;2022-11-14T00:40:44;12.93;;;8.37;;
47599;SDS011;33323;52.124;6.018;2022-11-14T00:43:30;15.38;;;8.57;;
47599;SDS011;33323;52.124;6.018;2022-11-14T00:46:16;14.45;;;9.90;;
47599;SDS011;33323;52.124;6.018;2022-11-14T00:49:02;16.13;;;9.70;;
47599;SDS011;33323;52.124;6.018;2022-11-14T00:51:47;16.15;;;8.55;;
47599;SDS011;33323;52.124;6.018;2022-11-14T00:54:33;16.02;;;9.80;;
47599;SDS011;33323;52.124;6.018;2022-11-14T00:57:19;18.65;;;10.02;;
47599;SDS011;33323;52.124;6.018;2022-11-14T01:00:05;14.25;;;8.75;;
47599;SDS011;33323;52.124;6.018;2022-11-14T01:02:51;15.82;;;9.00;;
47599;SDS011;33323;52.124;6.018;2022-11-14T01:05:44;14.43;;;9.23;;
47599;SDS011;33323;52.124;6.018;2022-11-14T01:08:34;14.82;;;9.63;;
47599;SDS011;33323;52.124;6.018;2022-11-14T01:11:20;15.50;;;9.07;;
47599;SDS011;33323;52.124;6.018;2022-11-14T01:14:07;14.10;;;8.40;;
47599;SDS011;33323;52.124;6.018;2022-11-14T01:16:53;17.23;;;10.20;;
47599;SDS011;33323;52.124;6.018;2022-11-14T01:19:39;18.33;;;11.55;;
47599;SDS011;33323;52.124;6.018;2022-11-14T01:22:24;16.55;;;10.23;;
47599;SDS011;33323;52.124;6.018;2022-11-14T01:25:09;15.10;;;8.80;;
47599;SDS011;33323;52.124;6.018;2022-11-14T01:27:55;23.83;;;10.87;;
47599;SDS011;33323;52.124;6.018;2022-11-14T01:30:40;16.98;;;9.68;;
47599;SDS011;33323;52.124;6.018;2022-11-14T01:33:26;17.33;;;10.90;;
47599;SDS011;33323;52.124;6.018;2022-11-14T01:36:12;15.90;;;10.20;;
47599;SDS011;33323;52.124;6.018;2022-11-14T01:38:58;23.55;;;11.32;;
47599;SDS011;33323;52.124;6.018;2022-11-14T01:41:43;19.65;;;12.27;;
47599;SDS011;33323;52.124;6.018;2022-11-14T01:44:45;18.08;;;10.60;;
47599;SDS011;33323;52.124;6.018;2022-11-14T01:47:37;21.35;;;12.73;;
47599;SDS011;33323;52.124;6.018;2022-11-14T01:50:23;20.40;;;11.50;;
47599;SDS011;33323;52.124;6.018;2022-11-14T01:53:10;19.98;;;11.30;;
47599;SDS011;33323;52.124;6.018;2022-11-14T01:55:57;21.92;;;12.40;;
47599;SDS011;33323;52.124;6.018;2022-11-14T01:58:49;20.15;;;12.45;;
47599;SDS011;33323;52.124;6.018;2022-11-14T02:01:44;22.77;;;13.07;;
47599;SDS011;33323;52.124;6.018;2022-11-14T02:04:34;28.73;;;16.38;;
47599;SDS011;33323;52.124;6.018;2022-11-14T02:07:26;23.58;;;12.98;;
47599;SDS011;33323;52.124;6.018;2022-11-14T02:10:15;25.23;;;13.40;;
47599;SDS011;33323;52.124;6.018;2022-11-14T02:13:04;25.08;;;14.63;;
47599;SDS011;33323;52.124;6.018;2022-11-14T02:15:50;26.98;;;15.32;;
47599;SDS011;33323;52.124;6.018;2022-11-14T02:18:36;28.85;;;15.02;;
47599;SDS011;33323;52.124;6.018;2022-11-14T02:21:21;29.73;;;15.77;;
47599;SDS011;33323;52.124;6.018;2022-11-14T02:24:10;30.65;;;16.80;;
47599;SDS011;33323;52.124;6.018;2022-11-14T02:26:57;28.73;;;15.52;;
47599;SDS011;33323;52.124;6.018;2022-11-14T02:29:43;26.95;;;14.80;;
47599;SDS011;33323;52.124;6.018;2022-11-14T02:32:28;37.80;;;17.57;;
47599;SDS011;33323;52.124;6.018;2022-11-14T02:35:34;25.95;;;14.73;;
47599;SDS011;33323;52.124;6.018;2022-11-14T02:38:19;29.27;;;16.03;;
47599;SDS011;33323;52.124;6.018;2022-11-14T02:41:05;28.40;;;16.33;;
47599;SDS011;33323;52.124;6.018;2022-11-14T02:43:50;30.10;;;16.13;;
47599;SDS011;33323;52.124;6.018;2022-11-14T02:46:36;30.27;;;16.55;;
47599;SDS011;33323;52.124;6.018;2022-11-14T02:49:21;25.15;;;14.60;;
47599;SDS011;33323;52.124;6.018;2022-11-14T02:52:06;29.63;;;16.25;;
47599;SDS011;33323;52.124;6.018;2022-11-14T02:54:52;30.33;;;16.80;;
47599;SDS011;33323;52.124;6.018;2022-11-14T03:00:24;32.63;;;16.17;;
47599;SDS011;33323;52.124;6.018;2022-11-14T03:03:09;29.85;;;16.00;;
47599;SDS011;33323;52.124;6.018;2022-11-14T03:05:58;25.73;;;15.73;;
47599;SDS011;33323;52.124;6.018;2022-11-14T03:08:48;33.28;;;15.43;;
47599;SDS011;33323;52.124;6.018;2022-11-14T03:11:33;32.63;;;16.80;;
47599;SDS011;33323;52.124;6.018;2022-11-14T03:14:19;34.70;;;17.08;;
47599;SDS011;33323;52.124;6.018;2022-11-14T03:17:05;31.88;;;17.42;;
47599;SDS011;33323;52.124;6.018;2022-11-14T03:19:51;33.47;;;16.27;;
47599;SDS011;33323;52.124;6.018;2022-11-14T03:22:36;33.35;;;17.40;;
47599;SDS011;33323;52.124;6.018;2022-11-14T03:25:22;28.60;;;16.00;;
47599;SDS011;33323;52.124;6.018;2022-11-14T03:28:08;32.28;;;16.92;;
47599;SDS011;33323;52.124;6.018;2022-11-14T03:30:54;36.45;;;18.55;;
47599;SDS011;33323;52.124;6.018;2022-11-14T03:33:39;39.75;;;17.38;;
47599;SDS011;33323;52.124;6.018;2022-11-14T03:36:25;39.00;;;19.95;;
47599;SDS011;33323;52.124;6.018;2022-11-14T03:39:11;38.72;;;18.83;;
47599;SDS011;33323;52.124;6.018;2022-11-14T03:41:57;44.63;;;21.83;;
47599;SDS011;33323;52.124;6.018;2022-11-14T03:44:43;44.38;;;22.02;;
47599;SDS011;33323;52.124;6.018;2022-11-14T03:47:28;39.88;;;19.98;;
47599;SDS011;33323;52.124;6.018;2022-11-14T03:50:14;67.85;;;24.80;;
47599;SDS011;33323;52.124;6.018;2022-11-14T03:53:00;62.92;;;24.27;;
47599;SDS011;33323;52.124;6.018;2022-11-14T03:55:46;72.05;;;26.65;;
47599;SDS011;33323;52.124;6.018;2022-11-14T03:58:31;85.22;;;28.45;;
47599;SDS011;33323;52.124;6.018;2022-11-14T04:01:17;105.60;;;30.20;;
47599;SDS011;33323;52.124;6.018;2022-11-14T04:04:02;160.10;;;33.30;;
47599;SDS011;33323;52.124;6.018;2022-11-14T04:06:48;163.10;;;36.00;;
47599;SDS011;33323;52.124;6.018;2022-11-14T04:09:33;161.25;;;36.80;;
47599;SDS011;33323;52.124;6.018;2022-11-14T04:12:19;155.57;;;33.83;;
47599;SDS011;33323;52.124;6.018;2022-11-14T04:15:05;172.43;;;37.33;;
47599;SDS011;33323;52.124;6.018;2022-11-14T04:17:51;187.60;;;39.00;;
47599;SDS011;33323;52.124;6.018;2022-11-14T04:20:36;177.48;;;35.45;;
47599;SDS011;33323;52.124;6.018;2022-11-14T04:23:21;119.87;;;31.20;;
47599;SDS011;33323;52.124;6.018;2022-11-14T04:26:07;203.57;;;33.70;;
47599;SDS011;33323;52.124;6.018;2022-11-14T04:28:53;159.95;;;30.00;;
47599;SDS011;33323;52.124;6.018;2022-11-14T04:31:38;97.87;;;26.20;;
47599;SDS011;33323;52.124;6.018;2022-11-14T04:34:24;106.25;;;26.35;;
47599;SDS011;33323;52.124;6.018;2022-11-14T04:37:09;131.43;;;27.52;;
47599;SDS011;33323;52.124;6.018;2022-11-14T04:39:55;76.50;;;22.45;;
47599;SDS011;33323;52.124;6.018;2022-11-14T04:42:44;123.00;;;23.38;;
47599;SDS011;33323;52.124;6.018;2022-11-14T04:45:30;198.10;;;25.80;;
47599;SDS011;33323;52.124;6.018;2022-11-14T04:48:16;169.88;;;25.20;;
47599;SDS011;33323;52.124;6.018;2022-11-14T04:51:02;165.43;;;28.40;;
47599;SDS011;33323;52.124;6.018;2022-11-14T04:53:47;196.32;;;29.48;;
47599;SDS011;33323;52.124;6.018;2022-11-14T04:56:33;135.88;;;28.00;;
47599;SDS011;33323;52.124;6.018;2022-11-14T04:59:18;153.52;;;24.38;;
47599;SDS011;33323;52.124;6.018;2022-11-14T05:04:50;151.32;;;27.10;;
47599;SDS011;33323;52.124;6.018;2022-11-14T05:07:36;145.05;;;23.27;;
47599;SDS011;33323;52.124;6.018;2022-11-14T05:10:21;214.10;;;26.90;;
47599;SDS011;33323;52.124;6.018;2022-11-14T05:13:07;124.53;;;23.25;;
47599;SDS011;33323;52.124;6.018;2022-11-14T05:15:52;131.63;;;22.73;;
47599;SDS011;33323;52.124;6.018;2022-11-14T05:18:37;100.38;;;22.25;;
47599;SDS011;33323;52.124;6.018;2022-11-14T05:21:30;123.15;;;21.90;;
47599;SDS011;33323;52.124;6.018;2022-11-14T05:24:16;93.60;;;18.65;;
47599;SDS011;33323;52.124;6.018;2022-11-14T05:27:03;70.43;;;19.73;;
47599;SDS011;33323;52.124;6.018;2022-11-14T05:29:49;62.22;;;16.13;;
47599;SDS011;33323;52.124;6.018;2022-11-14T05:32:34;44.65;;;15.27;;
47599;SDS011;33323;52.124;6.018;2022-11-14T05:35:20;38.90;;;15.77;;
47599;SDS011;33323;52.124;6.018;2022-11-14T05:38:05;30.73;;;15.73;;
47599;SDS011;33323;52.124;6.018;2022-11-14T05:40:51;24.45;;;13.77;;
47599;SDS011;33323;52.124;6.018;2022-11-14T05:43:37;26.77;;;12.88;;
47599;SDS011;33323;52.124;6.018;2022-11-14T05:46:22;24.15;;;14.23;;
47599;SDS011;33323;52.124;6.018;2022-11-14T05:49:08;24.88;;;13.95;;
47599;SDS011;33323;52.124;6.018;2022-11-14T05:51:54;22.23;;;12.52;;
47599;SDS011;33323;52.124;6.018;2022-11-14T05:54:39;29.05;;;14.20;;
47599;SDS011;33323;52.124;6.018;2022-11-14T05:57:25;29.00;;;14.85;;
47599;SDS011;33323;52.124;6.018;2022-11-14T06:00:10;46.30;;;15.93;;
47599;SDS011;33323;52.124;6.018;2022-11-14T06:02:57;28.85;;;15.80;;
47599;SDS011;33323;52.124;6.018;2022-11-14T06:05:43;22.98;;;13.65;;
47599;SDS011;33323;52.124;6.018;2022-11-14T06:08:29;24.23;;;14.15;;
47599;SDS011;33323;52.124;6.018;2022-11-14T06:11:17;24.73;;;14.45;;
47599;SDS011;33323;52.124;6.018;2022-11-14T06:14:06;37.80;;;13.93;;
47599;SDS011;33323;52.124;6.018;2022-11-14T06:16:54;32.22;;;15.20;;
47599;SDS011;33323;52.124;6.018;2022-11-14T06:19:40;28.05;;;12.25;;
47599;SDS011;33323;52.124;6.018;2022-11-14T06:22:26;41.10;;;13.82;;
47599;SDS011;33323;52.124;6.018;2022-11-14T06:25:11;34.92;;;14.15;;
47599;SDS011;33323;52.124;6.018;2022-11-14T06:27:57;57.00;;;15.05;;
47599;SDS011;33323;52.124;6.018;2022-11-14T06:30:43;48.73;;;17.63;;
47599;SDS011;33323;52.124;6.018;2022-11-14T06:33:32;90.05;;;19.15;;
47599;SDS011;33323;52.124;6.018;2022-11-14T06:36:19;49.88;;;16.27;;
47599;SDS011;33323;52.124;6.018;2022-11-14T06:39:05;43.58;;;17.33;;
47599;SDS011;33323;52.124;6.018;2022-11-14T06:41:50;65.83;;;19.03;;
47599;SDS011;33323;52.124;6.018;2022-11-14T06:44:36;56.67;;;18.75;;
47599;SDS011;33323;52.124;6.018;2022-11-14T06:47:21;57.33;;;15.87;;
47599;SDS011;33323;52.124;6.018;2022-11-14T06:50:07;51.90;;;15.57;;
47599;SDS011;33323;52.124;6.018;2022-11-14T06:52:52;68.53;;;19.13;;
47599;SDS011;33323;52.124;6.018;2022-11-14T06:55:38;46.58;;;15.25;;
47599;SDS011;33323;52.124;6.018;2022-11-14T06:58:26;54.57;;;17.20;;
47599;SDS011;33323;52.124;6.018;2022-11-14T07:01:23;45.33;;;14.48;;
47599;SDS011;33323;52.124;6.018;2022-11-14T07:04:12;44.05;;;16.45;;
47599;SDS011;33323;52.124;6.018;2022-11-14T07:06:58;39.60;;;15.07;;
47599;SDS011;33323;52.124;6.018;2022-11-14T07:09:43;86.55;;;17.13;;
47599;SDS011;33323;52.124;6.018;2022-11-14T07:12:29;63.47;;;15.43;;
47599;SDS011;33323;52.124;6.018;2022-11-14T07:15:16;77.28;;;16.63;;
47599;SDS011;33323;52.124;6.018;2022-11-14T07:18:02;47.17;;;15.93;;
47599;SDS011;33323;52.124;6.018;2022-11-14T07:20:48;30.00;;;13.80;;
47599;SDS011;33323;52.124;6.018;2022-11-14T07:23:33;45.00;;;16.08;;
47599;SDS011;33323;52.124;6.018;2022-11-14T07:26:19;36.70;;;14.05;;
47599;SDS011;33323;52.124;6.018;2022-11-14T07:29:05;52.72;;;16.20;;
47599;SDS011;33323;52.124;6.018;2022-11-14T07:31:51;56.08;;;17.27;;
47599;SDS011;33323;52.124;6.018;2022-11-14T07:34:36;36.13;;;15.85;;
47599;SDS011;33323;52.124;6.018;2022-11-14T07:37:22;32.83;;;15.60;;
47599;SDS011;33323;52.124;6.018;2022-11-14T07:40:08;48.33;;;18.55;;
47599;SDS011;33323;52.124;6.018;2022-11-14T07:42:57;47.38;;;14.88;;
47599;SDS011;33323;52.124;6.018;2022-11-14T07:45:44;36.58;;;16.92;;
47599;SDS011;33323;52.124;6.018;2022-11-14T07:48:30;33.50;;;17.33;;
47599;SDS011;33323;52.124;6.018;2022-11-14T07:51:18;30.83;;;17.35;;
47599;SDS011;33323;52.124;6.018;2022-11-14T07:54:04;34.83;;;16.35;;
47599;SDS011;33323;52.124;6.018;2022-11-14T07:56:50;26.50;;;14.63;;
47599;SDS011;33323;52.124;6.018;2022-11-14T07:59:35;31.10;;;15.00;;
47599;SDS011;33323;52.124;6.018;2022-11-14T08:02:21;33.13;;;15.93;;
47599;SDS011;33323;52.124;6.018;2022-11-14T08:05:07;38.67;;;15.45;;
47599;SDS011;33323;52.124;6.018;2022-11-14T08:07:53;40.55;;;16.73;;
47599;SDS011;33323;52.124;6.018;2022-11-14T08:10:38;47.63;;;16.33;;
47599;SDS011;33323;52.124;6.018;2022-11-14T08:13:24;33.73;;;13.63;;
47599;SDS011;33323;52.124;6.018;2022-11-14T08:16:18;46.58;;;16.38;;
47599;SDS011;33323;52.124;6.018;2022-11-14T08:19:03;82.10;;;18.67;;
47599;SDS011;33323;52.124;6.018;2022-11-14T08:21:49;43.53;;;15.27;;
47599;SDS011;33323;52.124;6.018;2022-11-14T08:24:35;24.25;;;14.07;;
47599;SDS011;33323;52.124;6.018;2022-11-14T08:27:20;36.07;;;15.17;;
47599;SDS011;33323;52.124;6.018;2022-11-14T08:30:06;40.85;;;17.63;;
47599;SDS011;33323;52.124;6.018;2022-11-14T08:32:53;43.72;;;15.65;;
47599;SDS011;33323;52.124;6.018;2022-11-14T08:35:38;47.05;;;14.75;;
47599;SDS011;33323;52.124;6.018;2022-11-14T08:38:24;26.77;;;13.30;;
47599;SDS011;33323;52.124;6.018;2022-11-14T08:41:10;50.22;;;15.90;;
47599;SDS011;33323;52.124;6.018;2022-11-14T08:43:56;43.80;;;16.40;;
47599;SDS011;33323;52.124;6.018;2022-11-14T08:46:41;53.47;;;16.60;;
47599;SDS011;33323;52.124;6.018;2022-11-14T08:49:27;36.05;;;13.73;;
47599;SDS011;33323;52.124;6.018;2022-11-14T08:52:13;31.58;;;15.88;;
47599;SDS011;33323;52.124;6.018;2022-11-14T08:55:00;30.30;;;13.57;;
47599;SDS011;33323;52.124;6.018;2022-11-14T08:57:46;29.00;;;13.50;;
47599;SDS011;33323;52.124;6.018;2022-11-14T09:00:34;21.63;;;12.40;;
47599;SDS011;33323;52.124;6.018;2022-11-14T09:03:19;19.27;;;11.98;;
47599;SDS011;33323;52.124;6.018;2022-11-14T09:06:05;18.08;;;11.52;;
47599;SDS011;33323;52.124;6.018;2022-11-14T09:08:51;23.98;;;13.52;;
47599;SDS011;33323;52.124;6.018;2022-11-14T09:11:37;22.77;;;12.88;;
47599;SDS011;33323;52.124;6.018;2022-11-14T09:14:23;25.52;;;13.55;;
47599;SDS011;33323;52.124;6.018;2022-11-14T09:19:54;27.65;;;13.18;;
47599;SDS011;33323;52.124;6.018;2022-11-14T09:22:40;23.55;;;11.93;;
47599;SDS011;33323;52.124;6.018;2022-11-14T09:25:26;25.83;;;13.18;;
47599;SDS011;33323;52.124;6.018;2022-11-14T09:28:13;23.63;;;12.77;;
47599;SDS011;33323;52.124;6.018;2022-11-14T09:31:06;20.85;;;12.85;;
47599;SDS011;33323;52.124;6.018;2022-11-14T09:33:54;29.05;;;16.38;;
47599;SDS011;33323;52.124;6.018;2022-11-14T09:36:39;22.23;;;12.95;;
47599;SDS011;33323;52.124;6.018;2022-11-14T09:39:25;20.60;;;11.95;;
47599;SDS011;33323;52.124;6.018;2022-11-14T09:45:34;27.02;;;14.32;;
47599;SDS011;33323;52.124;6.018;2022-11-14T09:48:26;27.90;;;14.13;;
47599;SDS011;33323;52.124;6.018;2022-11-14T09:51:15;26.15;;;13.50;;
47599;SDS011;33323;52.124;6.018;2022-11-14T09:54:18;26.17;;;13.45;;
47599;SDS011;33323;52.124;6.018;2022-11-14T09:57:12;27.00;;;14.05;;
47599;SDS011;33323;52.124;6.018;2022-11-14T10:00:19;26.17;;;14.23;;
47599;SDS011;33323;52.124;6.018;2022-11-14T10:03:11;27.02;;;13.68;;
47599;SDS011;33323;52.124;6.018;2022-11-14T10:12:20;24.00;;;13.25;;
47599;SDS011;33323;52.124;6.018;2022-11-14T10:15:24;24.08;;;13.38;;
47599;SDS011;33323;52.124;6.018;2022-11-14T10:21:59;25.02;;;13.25;;
47599;SDS011;33323;52.124;6.018;2022-11-14T10:25:29;26.85;;;13.05;;
47599;SDS011;33323;52.124;6.018;2022-11-14T10:28:42;25.03;;;13.57;;
47599;SDS011;33323;52.124;6.018;2022-11-14T10:34:52;26.77;;;12.63;;
47599;SDS011;33323;52.124;6.018;2022-11-14T10:38:01;24.17;;;13.88;;
47599;SDS011;33323;52.124;6.018;2022-11-14T10:41:00;25.88;;;13.40;;
47599;SDS011;33323;52.124;6.018;2022-11-14T10:43:49;20.58;;;12.25;;
47599;SDS011;33323;52.124;6.018;2022-11-14T10:46:40;23.50;;;13.80;;
47599;SDS011;33323;52.124;6.018;2022-11-14T10:49:32;24.75;;;13.52;;
47599;SDS011;33323;52.124;6.018;2022-11-14T10:52:21;21.35;;;11.50;;
47599;SDS011;33323;52.124;6.018;2022-11-14T10:55:21;22.30;;;11.70;;
47599;SDS011;33323;52.124;6.018;2022-11-14T10:58:28;24.60;;;12.52;;
47599;SDS011;33323;52.124;6.018;2022-11-14T11:04:27;30.80;;;10.52;;
47599;SDS011;33323;52.124;6.018;2022-11-14T11:10:27;24.05;;;11.93;;
47599;SDS011;33323;52.124;6.018;2022-11-14T11:16:21;30.38;;;12.98;;
47599;SDS011;33323;52.124;6.018;2022-11-14T11:22:22;19.58;;;11.27;;
47599;SDS011;33323;52.124;6.018;2022-11-14T11:25:23;21.58;;;12.80;;
47599;SDS011;33323;52.124;6.018;2022-11-14T11:28:17;15.82;;;9.38;;
47599;SDS011;33323;52.124;6.018;2022-11-14T11:31:06;16.83;;;9.70;;
47599;SDS011;33323;52.124;6.018;2022-11-14T11:33:54;14.32;;;8.05;;
47599;SDS011;33323;52.124;6.018;2022-11-14T11:36:41;11.70;;;6.28;;
47599;SDS011;33323;52.124;6.018;2022-11-14T11:39:32;19.60;;;9.57;;
47599;SDS011;33323;52.124;6.018;2022-11-14T11:42:48;10.95;;;6.28;;
47599;SDS011;33323;52.124;6.018;2022-11-14T11:45:58;21.80;;;11.27;;
47599;SDS011;33323;52.124;6.018;2022-11-14T11:48:50;21.33;;;11.10;;
47599;SDS011;33323;52.124;6.018;2022-11-14T11:54:45;23.92;;;11.93;;
47599;SDS011;33323;52.124;6.018;2022-11-14T11:58:16;21.88;;;10.82;;
47599;SDS011;33323;52.124;6.018;2022-11-14T12:01:22;19.13;;;10.02;;
47599;SDS011;33323;52.124;6.018;2022-11-14T12:04:08;19.88;;;9.68;;
47599;SDS011;33323;52.124;6.018;2022-11-14T12:07:07;22.15;;;10.68;;
47599;SDS011;33323;52.124;6.018;2022-11-14T12:09:59;18.75;;;10.52;;
47599;SDS011;33323;52.124;6.018;2022-11-14T12:32:09;25.65;;;14.13;;
47599;SDS011;33323;52.124;6.018;2022-11-14T12:35:02;28.20;;;16.15;;
47599;SDS011;33323;52.124;6.018;2022-11-14T12:37:51;16.58;;;9.35;;
47599;SDS011;33323;52.124;6.018;2022-11-14T12:40:40;28.35;;;15.95;;
47599;SDS011;33323;52.124;6.018;2022-11-14T12:43:35;29.33;;;16.17;;
47599;SDS011;33323;52.124;6.018;2022-11-14T12:46:23;29.95;;;15.30;;
47599;SDS011;33323;52.124;6.018;2022-11-14T12:49:34;17.02;;;11.07;;
47599;SDS011;33323;52.124;6.018;2022-11-14T12:58:25;21.98;;;10.90;;
47599;SDS011;33323;52.124;6.018;2022-11-14T13:01:25;21.08;;;11.40;;
47599;SDS011;33323;52.124;6.018;2022-11-14T13:04:27;21.00;;;10.65;;
47599;SDS011;33323;52.124;6.018;2022-11-14T13:07:46;22.90;;;12.65;;
47599;SDS011;33323;52.124;6.018;2022-11-14T13:10:49;25.77;;;11.95;;
47599;SDS011;33323;52.124;6.018;2022-11-14T13:13:42;18.17;;;9.07;;
47599;SDS011;33323;52.124;6.018;2022-11-14T13:20:28;20.60;;;11.93;;
47599;SDS011;33323;52.124;6.018;2022-11-14T13:38:40;13.77;;;6.90;;
47599;SDS011;33323;52.124;6.018;2022-11-14T13:41:48;14.82;;;7.70;;
47599;SDS011;33323;52.124;6.018;2022-11-14T13:51:31;17.17;;;9.55;;
47599;SDS011;33323;52.124;6.018;2022-11-14T13:54:27;14.00;;;8.60;;
47599;SDS011;33323;52.124;6.018;2022-11-14T14:00:17;16.20;;;9.70;;
47599;SDS011;33323;52.124;6.018;2022-11-14T14:06:10;11.82;;;6.32;;
47599;SDS011;33323;52.124;6.018;2022-11-14T14:09:47;19.77;;;11.50;;
47599;SDS011;33323;52.124;6.018;2022-11-14T14:29:44;17.35;;;10.00;;
47599;SDS011;33323;52.124;6.018;2022-11-14T14:32:41;21.88;;;11.13;;
47599;SDS011;33323;52.124;6.018;2022-11-14T14:35:29;19.48;;;11.50;;
47599;SDS011;33323;52.124;6.018;2022-11-14T14:38:24;21.52;;;11.27;;
47599;SDS011;33323;52.124;6.018;2022-11-14T14:41:12;13.07;;;7.93;;
47599;SDS011;33323;52.124;6.018;2022-11-14T14:44:01;17.52;;;9.52;;
47599;SDS011;33323;52.124;6.018;2022-11-14T14:46:47;15.57;;;10.13;;
47599;SDS011;33323;52.124;6.018;2022-11-14T14:49:34;17.58;;;10.48;;
47599;SDS011;33323;52.124;6.018;2022-11-14T14:52:28;17.45;;;10.23;;
47599;SDS011;33323;52.124;6.018;2022-11-14T14:55:18;18.40;;;11.20;;
47599;SDS011;33323;52.124;6.018;2022-11-14T14:58:15;16.58;;;11.50;;
47599;SDS011;33323;52.124;6.018;2022-11-14T15:01:17;20.15;;;10.88;;
47599;SDS011;33323;52.124;6.018;2022-11-14T15:04:07;19.98;;;11.90;;
47599;SDS011;33323;52.124;6.018;2022-11-14T15:06:58;16.45;;;10.45;;
47599;SDS011;33323;52.124;6.018;2022-11-14T15:09:51;21.95;;;11.85;;
47599;SDS011;33323;52.124;6.018;2022-11-14T15:12:44;21.42;;;11.77;;
47599;SDS011;33323;52.124;6.018;2022-11-14T15:15:30;16.95;;;9.85;;
47599;SDS011;33323;52.124;6.018;2022-11-14T15:18:27;19.67;;;10.32;;
47599;SDS011;33323;52.124;6.018;2022-11-14T15:24:20;13.85;;;7.03;;
47599;SDS011;33323;52.124;6.018;2022-11-14T15:27:11;19.05;;;10.93;;
47599;SDS011;33323;52.124;6.018;2022-11-14T15:30:00;21.48;;;11.45;;
47599;SDS011;33323;52.124;6.018;2022-11-14T15:32:51;20.77;;;11.48;;
47599;SDS011;33323;52.124;6.018;2022-11-14T15:35:39;20.08;;;11.38;;
47599;SDS011;33323;52.124;6.018;2022-11-14T15:38:25;16.50;;;10.77;;
47599;SDS011;33323;52.124;6.018;2022-11-14T15:41:31;17.60;;;11.05;;
47599;SDS011;33323;52.124;6.018;2022-11-14T15:44:30;18.70;;;10.48;;
47599;SDS011;33323;52.124;6.018;2022-11-14T15:47:27;21.77;;;10.88;;
47599;SDS011;33323;52.124;6.018;2022-11-14T15:53:00;20.92;;;12.43;;
47599;SDS011;33323;52.124;6.018;2022-11-14T15:55:46;23.00;;;11.18;;
47599;SDS011;33323;52.124;6.018;2022-11-14T15:58:32;16.83;;;10.02;;
47599;SDS011;33323;52.124;6.018;2022-11-14T16:01:21;21.20;;;12.40;;
47599;SDS011;33323;52.124;6.018;2022-11-14T16:04:11;16.70;;;9.90;;
47599;SDS011;33323;52.124;6.018;2022-11-14T16:07:03;18.98;;;8.95;;
47599;SDS011;33323;52.124;6.018;2022-11-14T16:12:35;16.35;;;9.05;;
47599;SDS011;33323;52.124;6.018;2022-11-14T16:15:20;15.18;;;8.30;;
47599;SDS011;33323;52.124;6.018;2022-11-14T16:18:06;17.70;;;10.05;;
47599;SDS011;33323;52.124;6.018;2022-11-14T16:20:52;18.98;;;10.02;;
47599;SDS011;33323;52.124;6.018;2022-11-14T16:23:42;16.50;;;9.60;;
47599;SDS011;33323;52.124;6.018;2022-11-14T16:26:29;18.20;;;8.30;;
47599;SDS011;33323;52.124;6.018;2022-11-14T16:29:16;12.88;;;7.13;;
47599;SDS011;33323;52.124;6.018;2022-11-14T16:32:02;20.90;;;12.68;;
47599;SDS011;33323;52.124;6.018;2022-11-14T16:34:48;20.17;;;12.57;;
47599;SDS011;33323;52.124;6.018;2022-11-14T16:37:33;20.90;;;12.30;;
47599;SDS011;33323;52.124;6.018;2022-11-14T16:40:20;25.45;;;13.63;;
47599;SDS011;33323;52.124;6.018;2022-11-14T16:43:13;18.77;;;9.40;;
47599;SDS011;33323;52.124;6.018;2022-11-14T16:46:01;22.17;;;13.13;;
47599;SDS011;33323;52.124;6.018;2022-11-14T16:48:49;18.33;;;11.80;;
47599;SDS011;33323;52.124;6.018;2022-11-14T16:51:35;15.60;;;8.18;;
47599;SDS011;33323;52.124;6.018;2022-11-14T16:54:32;18.00;;;11.63;;
47599;SDS011;33323;52.124;6.018;2022-11-14T16:57:18;20.55;;;12.82;;
47599;SDS011;33323;52.124;6.018;2022-11-14T17:00:04;15.27;;;8.20;;
47599;SDS011;33323;52.124;6.018;2022-11-14T17:02:55;17.77;;;11.50;;
47599;SDS011;33323;52.124;6.018;2022-11-14T17:05:42;21.25;;;12.05;;
47599;SDS011;33323;52.124;6.018;2022-11-14T17:08:34;19.50;;;10.48;;
47599;SDS011;33323;52.124;6.018;2022-11-14T17:11:20;18.00;;;10.45;;
47599;SDS011;33323;52.124;6.018;2022-11-14T17:16:52;18.98;;;10.90;;
47599;SDS011;33323;52.124;6.018;2022-11-14T17:19:38;23.90;;;12.10;;
47599;SDS011;33323;52.124;6.018;2022-11-14T17:22:29;31.48;;;13.35;;
47599;SDS011;33323;52.124;6.018;2022-11-14T17:25:15;15.27;;;9.35;;
47599;SDS011;33323;52.124;6.018;2022-11-14T17:28:01;23.95;;;11.48;;
47599;SDS011;33323;52.124;6.018;2022-11-14T17:30:47;23.02;;;12.30;;
47599;SDS011;33323;52.124;6.018;2022-11-14T17:36:19;20.58;;;12.10;;
47599;SDS011;33323;52.124;6.018;2022-11-14T17:39:06;19.20;;;11.80;;
47599;SDS011;33323;52.124;6.018;2022-11-14T17:41:52;22.83;;;12.98;;
47599;SDS011;33323;52.124;6.018;2022-11-14T17:44:37;24.50;;;12.23;;
47599;SDS011;33323;52.124;6.018;2022-11-14T17:47:23;16.65;;;10.95;;
47599;SDS011;33323;52.124;6.018;2022-11-14T17:50:09;23.50;;;12.38;;
47599;SDS011;33323;52.124;6.018;2022-11-14T17:52:55;25.33;;;12.77;;
47599;SDS011;33323;52.124;6.018;2022-11-14T17:55:41;20.50;;;11.65;;
47599;SDS011;33323;52.124;6.018;2022-11-14T17:58:29;22.52;;;11.10;;
47599;SDS011;33323;52.124;6.018;2022-11-14T18:01:18;25.90;;;12.00;;
47599;SDS011;33323;52.124;6.018;2022-11-14T18:04:06;21.15;;;12.57;;
47599;SDS011;33323;52.124;6.018;2022-11-14T18:06:52;22.05;;;12.18;;
47599;SDS011;33323;52.124;6.018;2022-11-14T18:09:38;20.70;;;11.10;;
47599;SDS011;33323;52.124;6.018;2022-11-14T18:12:25;23.95;;;12.77;;
47599;SDS011;33323;52.124;6.018;2022-11-14T18:15:10;26.00;;;12.55;;
47599;SDS011;33323;52.124;6.018;2022-11-14T18:17:56;27.60;;;11.93;;
47599;SDS011;33323;52.124;6.018;2022-11-14T18:20:42;25.02;;;13.23;;
47599;SDS011;33323;52.124;6.018;2022-11-14T18:23:28;23.70;;;12.57;;
47599;SDS011;33323;52.124;6.018;2022-11-14T18:26:15;24.05;;;12.43;;
47599;SDS011;33323;52.124;6.018;2022-11-14T18:29:02;26.80;;;12.90;;
47599;SDS011;33323;52.124;6.018;2022-11-14T18:31:48;22.45;;;11.50;;
47599;SDS011;33323;52.124;6.018;2022-11-14T18:34:33;25.27;;;13.33;;
47599;SDS011;33323;52.124;6.018;2022-11-14T18:37:20;18.75;;;11.55;;
47599;SDS011;33323;52.124;6.018;2022-11-14T18:43:00;24.83;;;13.32;;